JNA510 RKPC-RKSS
Flight info
| Callsign | JNA510 |
|---|---|
| Flight time | 0h 48m |
| Altitude | 21000 |
| Route | KAMIT1W KAMIT Y722 OLMEN OLMEN2T |
| Aircraft | B738/M-SDE2E3FGHIRWXY/LB1 |
Departure
| Time | 2026-05-01 12:12 |
|---|---|
| Airport | Jeju International Airport (RKPC) |
Arrival
| Time | 2026-05-01 13:01 |
|---|---|
| Airport | Gimpo International Airport (RKSS) |
| Time | Latitude | Longitude | Altitude | Speed | Heading |
|---|---|---|---|---|---|
| 2026-05-01 11:55 | 33.50818 | 126.49487 | 92 ft | 0 kts | 177° |
| 2026-05-01 12:04 | 33.50828 | 126.49486 | 93 ft | 4 kts | 177° |
| 2026-05-01 12:04 | 33.50855 | 126.49485 | 92 ft | 4 kts | 177° |
| 2026-05-01 12:04 | 33.50882 | 126.49483 | 94 ft | 4 kts | 177° |
| 2026-05-01 12:05 | 33.50904 | 126.49482 | 95 ft | 3 kts | 176° |
| 2026-05-01 12:05 | 33.50941 | 126.49449 | 92 ft | 4 kts | 97° |
| 2026-05-01 12:05 | 33.50942 | 126.49434 | 92 ft | 1 kts | 91° |
| 2026-05-01 12:06 | 33.50942 | 126.49435 | 92 ft | 0 kts | 90° |
| 2026-05-01 12:07 | 33.50943 | 126.49437 | 92 ft | 0 kts | 71° |
| 2026-05-01 12:09 | 33.50962 | 126.49472 | 92 ft | 10 kts | 54° |
| 2026-05-01 12:09 | 33.51010 | 126.49551 | 92 ft | 14 kts | 52° |
| 2026-05-01 12:09 | 33.51094 | 126.49625 | 92 ft | 15 kts | 23° |
| 2026-05-01 12:09 | 33.51192 | 126.49667 | 92 ft | 15 kts | 19° |
| 2026-05-01 12:10 | 33.51279 | 126.49731 | 94 ft | 18 kts | 55° |
| 2026-05-01 12:10 | 33.51394 | 126.49810 | 93 ft | 0 kts | 333° |
| 2026-05-01 12:10 | 33.51404 | 126.49804 | 92 ft | 7 kts | 330° |
| 2026-05-01 12:11 | 33.51430 | 126.49652 | 94 ft | 11 kts | 239° |
| 2026-05-01 12:11 | 33.51290 | 126.49377 | 91 ft | 72 kts | 238° |
| 2026-05-01 12:11 | 33.50913 | 126.48648 | 93 ft | 130 kts | 238° |
| 2026-05-01 12:12 | 33.50558 | 126.47949 | 168 ft | 154 kts | 240° |
| 2026-05-01 12:12 | 33.50014 | 126.46769 | 552 ft | 172 kts | 242° |
| 2026-05-01 12:12 | 33.49416 | 126.45465 | 1103 ft | 182 kts | 242° |
| 2026-05-01 12:12 | 33.48747 | 126.44194 | 1909 ft | 176 kts | 242° |
| 2026-05-01 12:13 | 33.48093 | 126.43014 | 2671 ft | 172 kts | 242° |
| 2026-05-01 12:13 | 33.47395 | 126.41706 | 2903 ft | 199 kts | 243° |
| 2026-05-01 12:13 | 33.46622 | 126.40232 | 3113 ft | 219 kts | 242° |
| 2026-05-01 12:13 | 33.45782 | 126.38620 | 3296 ft | 236 kts | 242° |
| 2026-05-01 12:14 | 33.45245 | 126.36743 | 3498 ft | 246 kts | 274° |
| 2026-05-01 12:14 | 33.45768 | 126.34802 | 3836 ft | 252 kts | 307° |
| 2026-05-01 12:14 | 33.47084 | 126.33411 | 4509 ft | 254 kts | 331° |
| 2026-05-01 12:14 | 33.48685 | 126.32517 | 5238 ft | 255 kts | 338° |
| 2026-05-01 12:15 | 33.50327 | 126.31735 | 5971 ft | 256 kts | 339° |
| 2026-05-01 12:15 | 33.51996 | 126.30956 | 6712 ft | 257 kts | 339° |
| 2026-05-01 12:15 | 33.53678 | 126.30159 | 7380 ft | 261 kts | 339° |
| 2026-05-01 12:15 | 33.55379 | 126.29339 | 8066 ft | 265 kts | 339° |
| 2026-05-01 12:16 | 33.57099 | 126.28498 | 8782 ft | 268 kts | 339° |
| 2026-05-01 12:16 | 33.58817 | 126.27652 | 9494 ft | 272 kts | 339° |
| 2026-05-01 12:16 | 33.60582 | 126.26777 | 10196 ft | 276 kts | 339° |
| 2026-05-01 12:16 | 33.62422 | 126.25864 | 10470 ft | 297 kts | 339° |
| 2026-05-01 12:17 | 33.64416 | 126.24924 | 10640 ft | 319 kts | 345° |
| 2026-05-01 12:17 | 33.66693 | 126.24734 | 10788 ft | 340 kts | 8° |
| 2026-05-01 12:17 | 33.68941 | 126.25753 | 11150 ft | 355 kts | 31° |
| 2026-05-01 12:17 | 33.70729 | 126.27857 | 11686 ft | 368 kts | 51° |
| 2026-05-01 12:18 | 33.72175 | 126.30419 | 12280 ft | 373 kts | 53° |
| 2026-05-01 12:18 | 33.73597 | 126.33056 | 12840 ft | 379 kts | 53° |
| 2026-05-01 12:18 | 33.75042 | 126.35744 | 13416 ft | 385 kts | 53° |
| 2026-05-01 12:18 | 33.76513 | 126.38453 | 13982 ft | 390 kts | 52° |
| 2026-05-01 12:19 | 33.78019 | 126.41196 | 14533 ft | 395 kts | 52° |
| 2026-05-01 12:19 | 33.79550 | 126.43968 | 15073 ft | 400 kts | 51° |
| 2026-05-01 12:19 | 33.81101 | 126.46766 | 15614 ft | 405 kts | 51° |
| 2026-05-01 12:19 | 33.82675 | 126.49602 | 16186 ft | 409 kts | 51° |
| 2026-05-01 12:20 | 33.84238 | 126.52424 | 16763 ft | 412 kts | 51° |
| 2026-05-01 12:20 | 33.85840 | 126.55316 | 17265 ft | 418 kts | 51° |
| 2026-05-01 12:20 | 33.87465 | 126.58253 | 17736 ft | 423 kts | 51° |
| 2026-05-01 12:20 | 33.89101 | 126.61218 | 18222 ft | 428 kts | 51° |
| 2026-05-01 12:21 | 33.90759 | 126.64226 | 18649 ft | 433 kts | 51° |
| 2026-05-01 12:21 | 33.92428 | 126.67255 | 19079 ft | 436 kts | 51° |
| 2026-05-01 12:21 | 33.94140 | 126.70288 | 19498 ft | 437 kts | 46° |
| 2026-05-01 12:21 | 33.96335 | 126.72717 | 19899 ft | 425 kts | 25° |
| 2026-05-01 12:22 | 33.98996 | 126.74218 | 20349 ft | 417 kts | 11° |
| 2026-05-01 12:22 | 34.01821 | 126.74828 | 20744 ft | 411 kts | 359° |
| 2026-05-01 12:22 | 34.04683 | 126.75103 | 21013 ft | 416 kts | 358° |
| 2026-05-01 12:22 | 34.07602 | 126.75357 | 21026 ft | 424 kts | 358° |
| 2026-05-01 12:23 | 34.10539 | 126.75625 | 21031 ft | 432 kts | 359° |
| 2026-05-01 12:23 | 34.13550 | 126.75925 | 21023 ft | 432 kts | 359° |
| 2026-05-01 12:23 | 34.16544 | 126.76243 | 21030 ft | 428 kts | 360° |
| 2026-05-01 12:23 | 34.19506 | 126.76565 | 21028 ft | 425 kts | 360° |
| 2026-05-01 12:24 | 34.22455 | 126.76892 | 21016 ft | 425 kts | 360° |
| 2026-05-01 12:24 | 34.25371 | 126.77202 | 21019 ft | 425 kts | 359° |
| 2026-05-01 12:24 | 34.28331 | 126.77510 | 21027 ft | 426 kts | 359° |
| 2026-05-01 12:24 | 34.31298 | 126.77820 | 21034 ft | 428 kts | 359° |
| 2026-05-01 12:25 | 34.34239 | 126.78127 | 21033 ft | 429 kts | 359° |
| 2026-05-01 12:25 | 34.40213 | 126.78756 | 21022 ft | 430 kts | 360° |
| 2026-05-01 12:25 | 34.43200 | 126.79072 | 21016 ft | 430 kts | 360° |
| 2026-05-01 12:26 | 34.46191 | 126.79390 | 21010 ft | 430 kts | 360° |
| 2026-05-01 12:26 | 34.52155 | 126.80023 | 21011 ft | 429 kts | 360° |
| 2026-05-01 12:26 | 34.55136 | 126.80339 | 21020 ft | 429 kts | 360° |
| 2026-05-01 12:27 | 34.58075 | 126.80650 | 21021 ft | 429 kts | 0° |
| 2026-05-01 12:27 | 34.64034 | 126.81285 | 21013 ft | 428 kts | 0° |
| 2026-05-01 12:28 | 34.69971 | 126.81918 | 21004 ft | 428 kts | 360° |
| 2026-05-01 12:28 | 34.72953 | 126.82236 | 21008 ft | 428 kts | 0° |
| 2026-05-01 12:28 | 34.78849 | 126.82865 | 21010 ft | 428 kts | 0° |
| 2026-05-01 12:29 | 34.81826 | 126.83183 | 21022 ft | 428 kts | 0° |
| 2026-05-01 12:29 | 34.84796 | 126.83496 | 21011 ft | 428 kts | 0° |
| 2026-05-01 12:29 | 34.90753 | 126.84137 | 21012 ft | 429 kts | 0° |
| 2026-05-01 12:30 | 34.96670 | 126.84778 | 21007 ft | 429 kts | 0° |
| 2026-05-01 12:30 | 34.99646 | 126.85096 | 21008 ft | 428 kts | 0° |
| 2026-05-01 12:30 | 35.02620 | 126.85415 | 21010 ft | 428 kts | 0° |
| 2026-05-01 12:31 | 35.05594 | 126.85735 | 21005 ft | 428 kts | 0° |
| 2026-05-01 12:31 | 35.08564 | 126.86055 | 21011 ft | 428 kts | 0° |
| 2026-05-01 12:31 | 35.11504 | 126.86371 | 21006 ft | 428 kts | 0° |
| 2026-05-01 12:31 | 35.14474 | 126.86691 | 21007 ft | 428 kts | 0° |
| 2026-05-01 12:32 | 35.17441 | 126.87012 | 21018 ft | 428 kts | 0° |
| 2026-05-01 12:32 | 35.23384 | 126.87659 | 21014 ft | 428 kts | 0° |
| 2026-05-01 12:32 | 35.26357 | 126.87983 | 21005 ft | 428 kts | 0° |
| 2026-05-01 12:33 | 35.29319 | 126.88306 | 21006 ft | 427 kts | 0° |
| 2026-05-01 12:33 | 35.32286 | 126.88630 | 21003 ft | 427 kts | 0° |
| 2026-05-01 12:33 | 35.35216 | 126.88954 | 21023 ft | 427 kts | 0° |
| 2026-05-01 12:33 | 35.38177 | 126.89282 | 21010 ft | 427 kts | 0° |
| 2026-05-01 12:34 | 35.41145 | 126.89601 | 20999 ft | 427 kts | 0° |
| 2026-05-01 12:34 | 35.44104 | 126.89920 | 21009 ft | 427 kts | 0° |
| 2026-05-01 12:34 | 35.47072 | 126.90245 | 21002 ft | 427 kts | 0° |
| 2026-05-01 12:34 | 35.50039 | 126.90570 | 21008 ft | 427 kts | 0° |
| 2026-05-01 12:35 | 35.53012 | 126.90896 | 21005 ft | 427 kts | 0° |
| 2026-05-01 12:35 | 35.55970 | 126.91220 | 21018 ft | 427 kts | 0° |
| 2026-05-01 12:35 | 35.58935 | 126.91543 | 21003 ft | 427 kts | 0° |
| 2026-05-01 12:35 | 35.61892 | 126.91866 | 20995 ft | 426 kts | 0° |
| 2026-05-01 12:36 | 35.64841 | 126.92189 | 20996 ft | 425 kts | 0° |
| 2026-05-01 12:36 | 35.67748 | 126.92508 | 20998 ft | 424 kts | 0° |
| 2026-05-01 12:36 | 35.70690 | 126.92831 | 20994 ft | 424 kts | 0° |
| 2026-05-01 12:36 | 35.73623 | 126.93153 | 20944 ft | 420 kts | 0° |
| 2026-05-01 12:37 | 35.76495 | 126.93472 | 20662 ft | 407 kts | 0° |
| 2026-05-01 12:37 | 35.79277 | 126.93781 | 20414 ft | 395 kts | 0° |
| 2026-05-01 12:37 | 35.81979 | 126.94079 | 20161 ft | 385 kts | 0° |
| 2026-05-01 12:37 | 35.84634 | 126.94368 | 19968 ft | 382 kts | 0° |
| 2026-05-01 12:38 | 35.87294 | 126.94657 | 19815 ft | 386 kts | 0° |
| 2026-05-01 12:38 | 35.89984 | 126.94951 | 19667 ft | 388 kts | 0° |
| 2026-05-01 12:38 | 35.92676 | 126.95250 | 19524 ft | 386 kts | 0° |
| 2026-05-01 12:38 | 35.95349 | 126.95549 | 19373 ft | 384 kts | 0° |
| 2026-05-01 12:39 | 35.98010 | 126.95847 | 19216 ft | 383 kts | 0° |
| 2026-05-01 12:39 | 36.00658 | 126.96143 | 19062 ft | 382 kts | 0° |
| 2026-05-01 12:39 | 36.03302 | 126.96439 | 18912 ft | 381 kts | 0° |
| 2026-05-01 12:39 | 36.05935 | 126.96733 | 18764 ft | 380 kts | 0° |
| 2026-05-01 12:40 | 36.08539 | 126.97024 | 18604 ft | 380 kts | 1° |
| 2026-05-01 12:40 | 36.11181 | 126.97319 | 18454 ft | 379 kts | 1° |
| 2026-05-01 12:40 | 36.13806 | 126.97613 | 18315 ft | 379 kts | 1° |
| 2026-05-01 12:40 | 36.16418 | 126.97906 | 18145 ft | 379 kts | 1° |
| 2026-05-01 12:41 | 36.19078 | 126.98211 | 17968 ft | 379 kts | 2° |
| 2026-05-01 12:41 | 36.21647 | 126.98840 | 17801 ft | 381 kts | 9° |
| 2026-05-01 12:41 | 36.24245 | 126.99690 | 17570 ft | 392 kts | 11° |
| 2026-05-01 12:41 | 36.26899 | 127.00596 | 17323 ft | 398 kts | 11° |
| 2026-05-01 12:42 | 36.29585 | 127.01519 | 17059 ft | 399 kts | 11° |
| 2026-05-01 12:42 | 36.32220 | 127.02428 | 16808 ft | 397 kts | 11° |
| 2026-05-01 12:42 | 36.34889 | 127.03349 | 16550 ft | 396 kts | 11° |
| 2026-05-01 12:42 | 36.37538 | 127.04261 | 16297 ft | 395 kts | 11° |
| 2026-05-01 12:43 | 36.40190 | 127.05169 | 16045 ft | 394 kts | 11° |
| 2026-05-01 12:43 | 36.42832 | 127.06069 | 15800 ft | 394 kts | 11° |
| 2026-05-01 12:43 | 36.45484 | 127.06967 | 15544 ft | 394 kts | 11° |
| 2026-05-01 12:43 | 36.48142 | 127.07861 | 15315 ft | 395 kts | 11° |
| 2026-05-01 12:44 | 36.50826 | 127.08528 | 15054 ft | 392 kts | 360° |
| 2026-05-01 12:44 | 36.53526 | 127.08440 | 14999 ft | 396 kts | 353° |
| 2026-05-01 12:44 | 36.58987 | 127.07787 | 14942 ft | 390 kts | 352° |
| 2026-05-01 12:45 | 36.64386 | 127.07062 | 14929 ft | 390 kts | 351° |
| 2026-05-01 12:45 | 36.67097 | 127.06693 | 14944 ft | 391 kts | 351° |
| 2026-05-01 12:45 | 36.69793 | 127.06323 | 14924 ft | 384 kts | 351° |
| 2026-05-01 12:46 | 36.72386 | 127.05974 | 14826 ft | 363 kts | 351° |
| 2026-05-01 12:46 | 36.74851 | 127.05648 | 14447 ft | 350 kts | 351° |
| 2026-05-01 12:46 | 36.77260 | 127.05327 | 14156 ft | 348 kts | 351° |
| 2026-05-01 12:46 | 36.79675 | 127.04999 | 13855 ft | 350 kts | 351° |
| 2026-05-01 12:47 | 36.82079 | 127.04667 | 13533 ft | 349 kts | 351° |
| 2026-05-01 12:47 | 36.84490 | 127.04329 | 13191 ft | 347 kts | 351° |
| 2026-05-01 12:47 | 36.86895 | 127.03991 | 12849 ft | 346 kts | 351° |
| 2026-05-01 12:47 | 36.89288 | 127.03654 | 12513 ft | 344 kts | 351° |
| 2026-05-01 12:48 | 36.91620 | 127.03328 | 12168 ft | 329 kts | 351° |
| 2026-05-01 12:48 | 36.93852 | 127.03230 | 11805 ft | 316 kts | 4° |
| 2026-05-01 12:48 | 36.95938 | 127.03762 | 11520 ft | 306 kts | 10° |
| 2026-05-01 12:48 | 36.97978 | 127.04422 | 11249 ft | 300 kts | 11° |
| 2026-05-01 12:49 | 36.99985 | 127.05098 | 10983 ft | 295 kts | 11° |
| 2026-05-01 12:49 | 37.01953 | 127.05769 | 10713 ft | 291 kts | 11° |
| 2026-05-01 12:49 | 37.03890 | 127.06435 | 10473 ft | 287 kts | 11° |
| 2026-05-01 12:49 | 37.05805 | 127.07097 | 10210 ft | 283 kts | 11° |
| 2026-05-01 12:50 | 37.07695 | 127.07757 | 9953 ft | 280 kts | 11° |
| 2026-05-01 12:50 | 37.09561 | 127.08417 | 9676 ft | 278 kts | 11° |
| 2026-05-01 12:50 | 37.11415 | 127.09077 | 9390 ft | 275 kts | 11° |
| 2026-05-01 12:50 | 37.12632 | 127.09511 | 9203 ft | 274 kts | 11° |
| 2026-05-01 12:51 | 37.15077 | 127.10384 | 8823 ft | 272 kts | 11° |
| 2026-05-01 12:51 | 37.16876 | 127.11025 | 8545 ft | 270 kts | 11° |
| 2026-05-01 12:51 | 37.20476 | 127.12306 | 8033 ft | 267 kts | 11° |
| 2026-05-01 12:52 | 37.21697 | 127.12636 | 7977 ft | 265 kts | 359° |
| 2026-05-01 12:52 | 37.25234 | 127.11636 | 7574 ft | 265 kts | 341° |
| 2026-05-01 12:52 | 37.27013 | 127.10986 | 7358 ft | 265 kts | 341° |
| 2026-05-01 12:53 | 37.30513 | 127.09729 | 6884 ft | 257 kts | 340° |
| 2026-05-01 12:53 | 37.32057 | 127.08685 | 6567 ft | 252 kts | 315° |
| 2026-05-01 12:53 | 37.33290 | 127.07144 | 6287 ft | 247 kts | 316° |
| 2026-05-01 12:54 | 37.34542 | 127.05695 | 5933 ft | 241 kts | 316° |
| 2026-05-01 12:54 | 37.36920 | 127.02776 | 5001 ft | 240 kts | 314° |
| 2026-05-01 12:54 | 37.38087 | 127.01300 | 4655 ft | 236 kts | 313° |
| 2026-05-01 12:55 | 37.40332 | 126.98448 | 4047 ft | 220 kts | 313° |
| 2026-05-01 12:55 | 37.41385 | 126.97114 | 3753 ft | 208 kts | 313° |
| 2026-05-01 12:55 | 37.42371 | 126.95866 | 3489 ft | 194 kts | 313° |
| 2026-05-01 12:56 | 37.43295 | 126.94692 | 3219 ft | 183 kts | 313° |
| 2026-05-01 12:56 | 37.44141 | 126.93551 | 3026 ft | 175 kts | 312° |
| 2026-05-01 12:56 | 37.45043 | 126.92532 | 2792 ft | 176 kts | 316° |
| 2026-05-01 12:56 | 37.45901 | 126.91443 | 2533 ft | 167 kts | 311° |
| 2026-05-01 12:57 | 37.46675 | 126.90424 | 2348 ft | 152 kts | 312° |
| 2026-05-01 12:57 | 37.48024 | 126.88700 | 1944 ft | 130 kts | 313° |
| 2026-05-01 12:57 | 37.48660 | 126.87894 | 1790 ft | 131 kts | 312° |
| 2026-05-01 12:58 | 37.49299 | 126.87084 | 1623 ft | 132 kts | 312° |
| 2026-05-01 12:58 | 37.49944 | 126.86261 | 1436 ft | 133 kts | 311° |
| 2026-05-01 12:58 | 37.50608 | 126.85425 | 1252 ft | 135 kts | 313° |
| 2026-05-01 12:59 | 37.51909 | 126.83794 | 939 ft | 139 kts | 313° |
| 2026-05-01 12:59 | 37.52599 | 126.82901 | 737 ft | 145 kts | 310° |
| 2026-05-01 12:59 | 37.54029 | 126.81086 | 317 ft | 145 kts | 311° |
| 2026-05-01 13:00 | 37.55343 | 126.79418 | 60 ft | 110 kts | 315° |
| 2026-05-01 13:00 | 37.55779 | 126.78872 | 55 ft | 63 kts | 315° |
| 2026-05-01 13:01 | 37.56339 | 126.78346 | 57 ft | 39 kts | 345° |
| 2026-05-01 13:01 | 37.56568 | 126.78458 | 58 ft | 37 kts | 44° |
| 2026-05-01 13:01 | 37.56530 | 126.78801 | 60 ft | 23 kts | 134° |
| 2026-05-01 13:02 | 37.56394 | 126.78973 | 63 ft | 35 kts | 135° |